sensor_id;sensor_type;location;lat;lon;timestamp;P1;durP1;ratioP1;P2;durP2;ratioP2
51718;SDS011;37795;53.236;5.704;2023-04-21T00:01:03;35.63;;;28.50;;
51718;SDS011;37795;53.236;5.704;2023-04-21T00:03:32;38.67;;;27.73;;
51718;SDS011;37795;53.236;5.704;2023-04-21T00:06:01;34.38;;;27.30;;
51718;SDS011;37795;53.236;5.704;2023-04-21T00:08:27;31.63;;;25.93;;
51718;SDS011;37795;53.236;5.704;2023-04-21T00:10:53;32.67;;;26.50;;
51718;SDS011;37795;53.236;5.704;2023-04-21T00:13:18;30.93;;;27.63;;
51718;SDS011;37795;53.236;5.704;2023-04-21T00:15:44;32.50;;;26.90;;
51718;SDS011;37795;53.236;5.704;2023-04-21T00:18:10;34.70;;;25.50;;
51718;SDS011;37795;53.236;5.704;2023-04-21T00:20:37;30.15;;;25.95;;
51718;SDS011;37795;53.236;5.704;2023-04-21T00:23:03;29.33;;;23.63;;
51718;SDS011;37795;53.236;5.704;2023-04-21T00:25:29;31.53;;;25.93;;
51718;SDS011;37795;53.236;5.704;2023-04-21T00:27:55;31.73;;;23.83;;
51718;SDS011;37795;53.236;5.704;2023-04-21T00:30:20;26.30;;;22.90;;
51718;SDS011;37795;53.236;5.704;2023-04-21T00:32:46;25.93;;;23.23;;
51718;SDS011;37795;53.236;5.704;2023-04-21T00:35:12;30.63;;;23.97;;
51718;SDS011;37795;53.236;5.704;2023-04-21T00:37:38;31.37;;;24.50;;
51718;SDS011;37795;53.236;5.704;2023-04-21T00:40:05;27.58;;;22.92;;
51718;SDS011;37795;53.236;5.704;2023-04-21T00:42:31;29.58;;;22.38;;
51718;SDS011;37795;53.236;5.704;2023-04-21T00:44:56;27.60;;;22.17;;
51718;SDS011;37795;53.236;5.704;2023-04-21T00:47:22;28.27;;;21.57;;
51718;SDS011;37795;53.236;5.704;2023-04-21T00:49:48;30.97;;;21.57;;
51718;SDS011;37795;53.236;5.704;2023-04-21T00:52:14;28.10;;;21.20;;
51718;SDS011;37795;53.236;5.704;2023-04-21T00:54:42;31.02;;;21.55;;
51718;SDS011;37795;53.236;5.704;2023-04-21T00:57:09;27.58;;;22.70;;
51718;SDS011;37795;53.236;5.704;2023-04-21T01:02:01;28.30;;;20.90;;
51718;SDS011;37795;53.236;5.704;2023-04-21T01:04:27;23.87;;;21.10;;
51718;SDS011;37795;53.236;5.704;2023-04-21T01:06:53;27.88;;;21.63;;
51718;SDS011;37795;53.236;5.704;2023-04-21T01:09:19;33.92;;;22.63;;
51718;SDS011;37795;53.236;5.704;2023-04-21T01:12:01;26.60;;;22.95;;
51718;SDS011;37795;53.236;5.704;2023-04-21T01:14:35;26.25;;;21.90;;
51718;SDS011;37795;53.236;5.704;2023-04-21T01:17:02;29.27;;;22.15;;
51718;SDS011;37795;53.236;5.704;2023-04-21T01:19:32;34.55;;;23.42;;
51718;SDS011;37795;53.236;5.704;2023-04-21T01:22:03;30.08;;;24.23;;
51718;SDS011;37795;53.236;5.704;2023-04-21T01:24:37;28.90;;;24.27;;
51718;SDS011;37795;53.236;5.704;2023-04-21T01:27:07;24.00;;;21.45;;
51718;SDS011;37795;53.236;5.704;2023-04-21T01:29:41;33.00;;;23.63;;
51718;SDS011;37795;53.236;5.704;2023-04-21T01:32:09;35.53;;;23.77;;
51718;SDS011;37795;53.236;5.704;2023-04-21T01:34:36;27.75;;;20.95;;
51718;SDS011;37795;53.236;5.704;2023-04-21T01:37:05;29.63;;;22.35;;
51718;SDS011;37795;53.236;5.704;2023-04-21T01:39:39;28.42;;;23.45;;
51718;SDS011;37795;53.236;5.704;2023-04-21T01:42:06;27.65;;;22.75;;
51718;SDS011;37795;53.236;5.704;2023-04-21T01:44:32;32.53;;;25.13;;
51718;SDS011;37795;53.236;5.704;2023-04-21T01:46:58;37.47;;;24.00;;
51718;SDS011;37795;53.236;5.704;2023-04-21T01:49:24;32.35;;;24.50;;
51718;SDS011;37795;53.236;5.704;2023-04-21T01:51:51;31.80;;;21.80;;
51718;SDS011;37795;53.236;5.704;2023-04-21T01:54:16;30.70;;;21.87;;
51718;SDS011;37795;53.236;5.704;2023-04-21T01:56:42;40.87;;;23.20;;
51718;SDS011;37795;53.236;5.704;2023-04-21T01:59:08;28.57;;;22.37;;
51718;SDS011;37795;53.236;5.704;2023-04-21T02:01:34;34.80;;;24.63;;
51718;SDS011;37795;53.236;5.704;2023-04-21T02:04:00;30.73;;;24.63;;
51718;SDS011;37795;53.236;5.704;2023-04-21T02:08:53;30.08;;;23.80;;
51718;SDS011;37795;53.236;5.704;2023-04-21T02:11:19;25.83;;;22.23;;
51718;SDS011;37795;53.236;5.704;2023-04-21T02:13:45;29.50;;;24.03;;
51718;SDS011;37795;53.236;5.704;2023-04-21T02:16:10;27.57;;;22.97;;
51718;SDS011;37795;53.236;5.704;2023-04-21T02:18:36;28.57;;;24.20;;
51718;SDS011;37795;53.236;5.704;2023-04-21T02:21:04;28.67;;;22.95;;
51718;SDS011;37795;53.236;5.704;2023-04-21T02:23:30;29.73;;;23.80;;
51718;SDS011;37795;53.236;5.704;2023-04-21T02:25:56;25.60;;;22.50;;
51718;SDS011;37795;53.236;5.704;2023-04-21T02:28:22;32.50;;;24.30;;
51718;SDS011;37795;53.236;5.704;2023-04-21T02:30:47;26.33;;;23.50;;
51718;SDS011;37795;53.236;5.704;2023-04-21T02:33:13;30.40;;;22.93;;
51718;SDS011;37795;53.236;5.704;2023-04-21T02:35:39;26.53;;;23.23;;
51718;SDS011;37795;53.236;5.704;2023-04-21T02:38:04;27.93;;;24.43;;
51718;SDS011;37795;53.236;5.704;2023-04-21T02:40:32;26.33;;;21.65;;
51718;SDS011;37795;53.236;5.704;2023-04-21T02:42:58;26.70;;;23.77;;
51718;SDS011;37795;53.236;5.704;2023-04-21T02:45:24;29.70;;;24.23;;
51718;SDS011;37795;53.236;5.704;2023-04-21T02:47:50;28.37;;;23.07;;
51718;SDS011;37795;53.236;5.704;2023-04-21T02:50:16;34.20;;;24.50;;
51718;SDS011;37795;53.236;5.704;2023-04-21T02:52:41;29.90;;;24.20;;
51718;SDS011;37795;53.236;5.704;2023-04-21T02:55:07;29.73;;;23.23;;
51718;SDS011;37795;53.236;5.704;2023-04-21T02:57:33;28.70;;;24.67;;
51718;SDS011;37795;53.236;5.704;2023-04-21T02:59:58;34.80;;;24.80;;
51718;SDS011;37795;53.236;5.704;2023-04-21T03:02:24;34.60;;;25.93;;
51718;SDS011;37795;53.236;5.704;2023-04-21T03:04:50;27.70;;;24.73;;
51718;SDS011;37795;53.236;5.704;2023-04-21T03:07:17;35.67;;;23.85;;
51718;SDS011;37795;53.236;5.704;2023-04-21T03:09:42;38.97;;;25.57;;
51718;SDS011;37795;53.236;5.704;2023-04-21T03:12:08;29.37;;;24.67;;
51718;SDS011;37795;53.236;5.704;2023-04-21T03:14:34;32.87;;;24.57;;
51718;SDS011;37795;53.236;5.704;2023-04-21T03:17:00;24.30;;;21.57;;
51718;SDS011;37795;53.236;5.704;2023-04-21T03:19:25;32.00;;;24.70;;
51718;SDS011;37795;53.236;5.704;2023-04-21T03:21:51;30.03;;;24.70;;
51718;SDS011;37795;53.236;5.704;2023-04-21T03:24:17;28.60;;;23.97;;
51718;SDS011;37795;53.236;5.704;2023-04-21T03:26:43;31.48;;;24.17;;
51718;SDS011;37795;53.236;5.704;2023-04-21T03:29:09;31.10;;;22.90;;
51718;SDS011;37795;53.236;5.704;2023-04-21T03:31:34;33.63;;;24.67;;
51718;SDS011;37795;53.236;5.704;2023-04-21T03:34:00;30.77;;;23.50;;
51718;SDS011;37795;53.236;5.704;2023-04-21T03:36:26;33.90;;;23.40;;
51718;SDS011;37795;53.236;5.704;2023-04-21T03:38:52;32.20;;;25.00;;
51718;SDS011;37795;53.236;5.704;2023-04-21T03:41:17;30.00;;;23.70;;
51718;SDS011;37795;53.236;5.704;2023-04-21T03:43:43;30.00;;;24.03;;
51718;SDS011;37795;53.236;5.704;2023-04-21T03:46:18;40.07;;;25.63;;
51718;SDS011;37795;53.236;5.704;2023-04-21T03:48:45;28.63;;;24.25;;
51718;SDS011;37795;53.236;5.704;2023-04-21T03:51:12;25.65;;;22.92;;
51718;SDS011;37795;53.236;5.704;2023-04-21T03:53:38;31.20;;;23.70;;
51718;SDS011;37795;53.236;5.704;2023-04-21T03:56:04;25.47;;;22.40;;
51718;SDS011;37795;53.236;5.704;2023-04-21T03:58:30;26.83;;;22.75;;
51718;SDS011;37795;53.236;5.704;2023-04-21T04:00:56;25.87;;;23.07;;
51718;SDS011;37795;53.236;5.704;2023-04-21T04:03:21;29.50;;;22.60;;
51718;SDS011;37795;53.236;5.704;2023-04-21T04:05:47;33.13;;;23.20;;
51718;SDS011;37795;53.236;5.704;2023-04-21T04:08:13;27.20;;;22.33;;
51718;SDS011;37795;53.236;5.704;2023-04-21T04:10:38;28.27;;;22.83;;
51718;SDS011;37795;53.236;5.704;2023-04-21T04:13:04;28.27;;;21.43;;
51718;SDS011;37795;53.236;5.704;2023-04-21T04:15:30;28.17;;;23.17;;
51718;SDS011;37795;53.236;5.704;2023-04-21T04:17:55;29.20;;;22.07;;
51718;SDS011;37795;53.236;5.704;2023-04-21T04:20:21;27.60;;;20.90;;
51718;SDS011;37795;53.236;5.704;2023-04-21T04:22:47;25.77;;;21.03;;
51718;SDS011;37795;53.236;5.704;2023-04-21T04:25:13;24.83;;;20.33;;
51718;SDS011;37795;53.236;5.704;2023-04-21T04:27:41;37.97;;;21.50;;
51718;SDS011;37795;53.236;5.704;2023-04-21T04:30:08;23.05;;;19.95;;
51718;SDS011;37795;53.236;5.704;2023-04-21T04:32:34;21.67;;;18.38;;
51718;SDS011;37795;53.236;5.704;2023-04-21T04:35:04;28.15;;;19.75;;
51718;SDS011;37795;53.236;5.704;2023-04-21T04:37:30;25.48;;;19.90;;
51718;SDS011;37795;53.236;5.704;2023-04-21T04:39:58;24.73;;;20.38;;
51718;SDS011;37795;53.236;5.704;2023-04-21T04:42:24;29.67;;;19.43;;
51718;SDS011;37795;53.236;5.704;2023-04-21T04:44:53;30.00;;;20.30;;
51718;SDS011;37795;53.236;5.704;2023-04-21T04:47:19;23.48;;;20.02;;
51718;SDS011;37795;53.236;5.704;2023-04-21T04:49:44;29.60;;;21.13;;
51718;SDS011;37795;53.236;5.704;2023-04-21T04:52:11;26.23;;;19.77;;
51718;SDS011;37795;53.236;5.704;2023-04-21T04:54:36;23.53;;;19.97;;
51718;SDS011;37795;53.236;5.704;2023-04-21T04:57:02;23.30;;;19.27;;
51718;SDS011;37795;53.236;5.704;2023-04-21T04:59:28;24.03;;;20.30;;
51718;SDS011;37795;53.236;5.704;2023-04-21T05:01:55;21.45;;;19.08;;
51718;SDS011;37795;53.236;5.704;2023-04-21T05:04:21;27.67;;;20.60;;
51718;SDS011;37795;53.236;5.704;2023-04-21T05:06:47;25.73;;;18.58;;
51718;SDS011;37795;53.236;5.704;2023-04-21T05:09:13;25.75;;;20.50;;
51718;SDS011;37795;53.236;5.704;2023-04-21T05:11:40;22.50;;;17.63;;
51718;SDS011;37795;53.236;5.704;2023-04-21T05:14:06;24.10;;;19.23;;
51718;SDS011;37795;53.236;5.704;2023-04-21T05:16:31;22.70;;;18.43;;
51718;SDS011;37795;53.236;5.704;2023-04-21T05:19:01;22.40;;;18.92;;
51718;SDS011;37795;53.236;5.704;2023-04-21T05:21:27;20.65;;;17.27;;
51718;SDS011;37795;53.236;5.704;2023-04-21T05:23:54;23.10;;;18.58;;
51718;SDS011;37795;53.236;5.704;2023-04-21T05:26:20;29.52;;;19.00;;
51718;SDS011;37795;53.236;5.704;2023-04-21T05:28:47;26.33;;;19.48;;
51718;SDS011;37795;53.236;5.704;2023-04-21T05:31:12;23.58;;;18.33;;
51718;SDS011;37795;53.236;5.704;2023-04-21T05:33:38;21.77;;;18.90;;
51718;SDS011;37795;53.236;5.704;2023-04-21T05:36:10;23.43;;;19.43;;
51718;SDS011;37795;53.236;5.704;2023-04-21T05:38:36;21.67;;;16.80;;
51718;SDS011;37795;53.236;5.704;2023-04-21T05:41:02;20.55;;;17.83;;
51718;SDS011;37795;53.236;5.704;2023-04-21T05:43:29;22.58;;;17.40;;
51718;SDS011;37795;53.236;5.704;2023-04-21T05:45:57;23.15;;;18.15;;
51718;SDS011;37795;53.236;5.704;2023-04-21T05:48:24;19.20;;;16.42;;
51718;SDS011;37795;53.236;5.704;2023-04-21T05:50:49;18.47;;;16.63;;
51718;SDS011;37795;53.236;5.704;2023-04-21T05:53:15;23.17;;;16.80;;
51718;SDS011;37795;53.236;5.704;2023-04-21T05:55:41;25.20;;;17.92;;
51718;SDS011;37795;53.236;5.704;2023-04-21T05:58:07;24.77;;;16.63;;
51718;SDS011;37795;53.236;5.704;2023-04-21T06:00:33;23.93;;;18.07;;
51718;SDS011;37795;53.236;5.704;2023-04-21T06:02:58;23.93;;;17.40;;
51718;SDS011;37795;53.236;5.704;2023-04-21T06:05:24;22.43;;;17.53;;
51718;SDS011;37795;53.236;5.704;2023-04-21T06:07:50;28.67;;;17.37;;
51718;SDS011;37795;53.236;5.704;2023-04-21T06:10:16;19.00;;;16.50;;
51718;SDS011;37795;53.236;5.704;2023-04-21T06:12:42;20.33;;;16.15;;
51718;SDS011;37795;53.236;5.704;2023-04-21T06:15:08;23.83;;;16.73;;
51718;SDS011;37795;53.236;5.704;2023-04-21T06:17:34;21.70;;;15.60;;
51718;SDS011;37795;53.236;5.704;2023-04-21T06:20:00;21.90;;;15.17;;
51718;SDS011;37795;53.236;5.704;2023-04-21T06:22:25;21.13;;;15.37;;
51718;SDS011;37795;53.236;5.704;2023-04-21T06:24:51;18.00;;;16.25;;
51718;SDS011;37795;53.236;5.704;2023-04-21T06:27:17;22.00;;;16.70;;
51718;SDS011;37795;53.236;5.704;2023-04-21T06:29:43;24.23;;;15.63;;
51718;SDS011;37795;53.236;5.704;2023-04-21T06:32:11;19.37;;;15.07;;
51718;SDS011;37795;53.236;5.704;2023-04-21T06:34:37;18.92;;;15.75;;
51718;SDS011;37795;53.236;5.704;2023-04-21T06:37:03;17.77;;;15.57;;
51718;SDS011;37795;53.236;5.704;2023-04-21T06:39:29;26.13;;;15.53;;
51718;SDS011;37795;53.236;5.704;2023-04-21T06:41:55;18.03;;;16.00;;
51718;SDS011;37795;53.236;5.704;2023-04-21T06:44:22;19.55;;;17.48;;
51718;SDS011;37795;53.236;5.704;2023-04-21T06:46:48;24.43;;;16.97;;
51718;SDS011;37795;53.236;5.704;2023-04-21T06:56:43;24.35;;;16.20;;
51718;SDS011;37795;53.236;5.704;2023-04-21T06:59:08;22.33;;;15.47;;
51718;SDS011;37795;53.236;5.704;2023-04-21T07:01:34;20.13;;;17.13;;
51718;SDS011;37795;53.236;5.704;2023-04-21T07:04:00;19.80;;;15.63;;
51718;SDS011;37795;53.236;5.704;2023-04-21T07:06:25;21.57;;;14.27;;
51718;SDS011;37795;53.236;5.704;2023-04-21T07:08:51;17.73;;;13.73;;
51718;SDS011;37795;53.236;5.704;2023-04-21T07:11:17;19.43;;;14.60;;
51718;SDS011;37795;53.236;5.704;2023-04-21T07:13:43;17.60;;;15.18;;
51718;SDS011;37795;53.236;5.704;2023-04-21T07:16:09;21.92;;;15.55;;
51718;SDS011;37795;53.236;5.704;2023-04-21T07:18:35;17.00;;;15.30;;
51718;SDS011;37795;53.236;5.704;2023-04-21T07:21:01;16.97;;;15.13;;
51718;SDS011;37795;53.236;5.704;2023-04-21T07:23:26;16.70;;;15.00;;
51718;SDS011;37795;53.236;5.704;2023-04-21T07:25:52;24.07;;;14.67;;
51718;SDS011;37795;53.236;5.704;2023-04-21T07:28:18;16.97;;;13.77;;
51718;SDS011;37795;53.236;5.704;2023-04-21T07:30:43;18.37;;;14.70;;
51718;SDS011;37795;53.236;5.704;2023-04-21T07:33:09;21.33;;;15.37;;
51718;SDS011;37795;53.236;5.704;2023-04-21T07:35:35;21.40;;;15.03;;
51718;SDS011;37795;53.236;5.704;2023-04-21T07:38:00;22.33;;;14.67;;
51718;SDS011;37795;53.236;5.704;2023-04-21T07:40:26;21.43;;;14.67;;
51718;SDS011;37795;53.236;5.704;2023-04-21T07:42:52;23.17;;;14.47;;
51718;SDS011;37795;53.236;5.704;2023-04-21T07:45:18;16.97;;;14.40;;
51718;SDS011;37795;53.236;5.704;2023-04-21T07:47:43;22.17;;;14.40;;
51718;SDS011;37795;53.236;5.704;2023-04-21T07:50:10;19.13;;;13.45;;
51718;SDS011;37795;53.236;5.704;2023-04-21T07:52:36;20.50;;;13.00;;
51718;SDS011;37795;53.236;5.704;2023-04-21T07:55:01;22.63;;;15.03;;
51718;SDS011;37795;53.236;5.704;2023-04-21T07:57:27;18.67;;;13.48;;
51718;SDS011;37795;53.236;5.704;2023-04-21T07:59:55;18.27;;;13.73;;
51718;SDS011;37795;53.236;5.704;2023-04-21T08:02:21;14.97;;;13.20;;
51718;SDS011;37795;53.236;5.704;2023-04-21T08:04:47;15.07;;;13.23;;
51718;SDS011;37795;53.236;5.704;2023-04-21T08:07:13;20.90;;;13.47;;
51718;SDS011;37795;53.236;5.704;2023-04-21T08:09:39;19.33;;;13.55;;
51718;SDS011;37795;53.236;5.704;2023-04-21T08:12:05;16.90;;;13.93;;
51718;SDS011;37795;53.236;5.704;2023-04-21T08:14:31;21.67;;;12.60;;
51718;SDS011;37795;53.236;5.704;2023-04-21T08:16:57;23.53;;;14.00;;
51718;SDS011;37795;53.236;5.704;2023-04-21T08:19:23;18.13;;;14.27;;
51718;SDS011;37795;53.236;5.704;2023-04-21T08:21:49;20.57;;;13.23;;
51718;SDS011;37795;53.236;5.704;2023-04-21T08:24:15;16.50;;;13.30;;
51718;SDS011;37795;53.236;5.704;2023-04-21T08:26:40;21.40;;;13.17;;
51718;SDS011;37795;53.236;5.704;2023-04-21T08:29:06;14.07;;;12.57;;
51718;SDS011;37795;53.236;5.704;2023-04-21T08:31:34;15.98;;;14.05;;
51718;SDS011;37795;53.236;5.704;2023-04-21T08:34:00;17.15;;;15.00;;
51718;SDS011;37795;53.236;5.704;2023-04-21T08:36:26;17.30;;;14.27;;
51718;SDS011;37795;53.236;5.704;2023-04-21T08:38:52;20.00;;;14.05;;
51718;SDS011;37795;53.236;5.704;2023-04-21T08:41:18;15.87;;;13.00;;
51718;SDS011;37795;53.236;5.704;2023-04-21T08:43:44;17.42;;;13.20;;
51718;SDS011;37795;53.236;5.704;2023-04-21T08:46:10;17.93;;;13.67;;
51718;SDS011;37795;53.236;5.704;2023-04-21T08:48:36;17.80;;;13.57;;
51718;SDS011;37795;53.236;5.704;2023-04-21T08:51:04;16.70;;;14.27;;
51718;SDS011;37795;53.236;5.704;2023-04-21T08:53:34;21.05;;;13.95;;
51718;SDS011;37795;53.236;5.704;2023-04-21T08:56:01;16.08;;;12.00;;
51718;SDS011;37795;53.236;5.704;2023-04-21T09:00:53;15.18;;;13.30;;
51718;SDS011;37795;53.236;5.704;2023-04-21T09:03:22;22.50;;;14.27;;
51718;SDS011;37795;53.236;5.704;2023-04-21T09:05:59;14.98;;;13.20;;
51718;SDS011;37795;53.236;5.704;2023-04-21T09:08:27;16.40;;;13.00;;
51718;SDS011;37795;53.236;5.704;2023-04-21T09:10:54;19.70;;;14.27;;
51718;SDS011;37795;53.236;5.704;2023-04-21T09:13:27;18.10;;;12.57;;
51718;SDS011;37795;53.236;5.704;2023-04-21T09:15:57;17.40;;;14.02;;
51718;SDS011;37795;53.236;5.704;2023-04-21T09:20:51;14.75;;;12.90;;
51718;SDS011;37795;53.236;5.704;2023-04-21T09:23:47;19.05;;;12.10;;
51718;SDS011;37795;53.236;5.704;2023-04-21T09:26:15;17.30;;;13.05;;
51718;SDS011;37795;53.236;5.704;2023-04-21T09:28:43;19.08;;;14.00;;
51718;SDS011;37795;53.236;5.704;2023-04-21T09:31:19;15.50;;;13.32;;
51718;SDS011;37795;53.236;5.704;2023-04-21T09:33:49;18.83;;;12.88;;
51718;SDS011;37795;53.236;5.704;2023-04-21T09:36:20;15.93;;;12.48;;
51718;SDS011;37795;53.236;5.704;2023-04-21T09:41:19;17.02;;;12.10;;
51718;SDS011;37795;53.236;5.704;2023-04-21T09:46:12;14.98;;;12.18;;
51718;SDS011;37795;53.236;5.704;2023-04-21T09:48:42;20.92;;;13.95;;
51718;SDS011;37795;53.236;5.704;2023-04-21T09:51:10;17.83;;;12.40;;
51718;SDS011;37795;53.236;5.704;2023-04-21T09:53:38;14.68;;;11.50;;
51718;SDS011;37795;53.236;5.704;2023-04-21T09:56:05;15.10;;;12.57;;
51718;SDS011;37795;53.236;5.704;2023-04-21T09:58:39;25.50;;;12.52;;
51718;SDS011;37795;53.236;5.704;2023-04-21T10:01:10;16.33;;;12.00;;
51718;SDS011;37795;53.236;5.704;2023-04-21T10:03:38;17.92;;;12.85;;
51718;SDS011;37795;53.236;5.704;2023-04-21T10:06:05;18.50;;;12.77;;
51718;SDS011;37795;53.236;5.704;2023-04-21T10:10:57;13.88;;;12.10;;
51718;SDS011;37795;53.236;5.704;2023-04-21T10:13:24;17.08;;;12.73;;
51718;SDS011;37795;53.236;5.704;2023-04-21T10:16:00;15.30;;;13.23;;
51718;SDS011;37795;53.236;5.704;2023-04-21T10:18:27;14.70;;;12.52;;
51718;SDS011;37795;53.236;5.704;2023-04-21T10:20:57;18.33;;;13.23;;
51718;SDS011;37795;53.236;5.704;2023-04-21T10:26:07;15.13;;;12.63;;
51718;SDS011;37795;53.236;5.704;2023-04-21T10:28:51;17.98;;;12.43;;
51718;SDS011;37795;53.236;5.704;2023-04-21T10:36:33;15.18;;;12.60;;
51718;SDS011;37795;53.236;5.704;2023-04-21T10:39:06;18.63;;;12.02;;
51718;SDS011;37795;53.236;5.704;2023-04-21T10:41:32;16.70;;;11.90;;
51718;SDS011;37795;53.236;5.704;2023-04-21T10:43:59;20.33;;;13.07;;
51718;SDS011;37795;53.236;5.704;2023-04-21T10:49:06;17.13;;;12.13;;
51718;SDS011;37795;53.236;5.704;2023-04-21T10:56:42;15.93;;;12.45;;
51718;SDS011;37795;53.236;5.704;2023-04-21T10:59:08;24.00;;;12.57;;
51718;SDS011;37795;53.236;5.704;2023-04-21T11:01:34;19.03;;;13.07;;
51718;SDS011;37795;53.236;5.704;2023-04-21T11:04:04;15.70;;;11.95;;
51718;SDS011;37795;53.236;5.704;2023-04-21T11:06:30;12.63;;;10.67;;
51718;SDS011;37795;53.236;5.704;2023-04-21T11:11:22;11.70;;;10.07;;
51718;SDS011;37795;53.236;5.704;2023-04-21T11:13:48;20.27;;;12.57;;
51718;SDS011;37795;53.236;5.704;2023-04-21T11:16:16;11.43;;;10.02;;
51718;SDS011;37795;53.236;5.704;2023-04-21T11:18:43;15.83;;;11.20;;
51718;SDS011;37795;53.236;5.704;2023-04-21T11:21:10;20.92;;;11.20;;
51718;SDS011;37795;53.236;5.704;2023-04-21T11:23:38;13.65;;;11.02;;
51718;SDS011;37795;53.236;5.704;2023-04-21T11:26:05;13.05;;;11.50;;
51718;SDS011;37795;53.236;5.704;2023-04-21T11:28:31;11.50;;;10.15;;
51718;SDS011;37795;53.236;5.704;2023-04-21T11:30:57;13.77;;;11.63;;
51718;SDS011;37795;53.236;5.704;2023-04-21T11:33:23;15.82;;;11.57;;
51718;SDS011;37795;53.236;5.704;2023-04-21T11:35:52;13.23;;;11.88;;
51718;SDS011;37795;53.236;5.704;2023-04-21T11:38:23;13.60;;;10.77;;
51718;SDS011;37795;53.236;5.704;2023-04-21T11:40:49;18.23;;;11.52;;
51718;SDS011;37795;53.236;5.704;2023-04-21T11:45:41;18.40;;;11.75;;
51718;SDS011;37795;53.236;5.704;2023-04-21T11:48:16;15.40;;;11.07;;
51718;SDS011;37795;53.236;5.704;2023-04-21T11:50:47;14.15;;;11.27;;
51718;SDS011;37795;53.236;5.704;2023-04-21T11:53:14;12.85;;;10.35;;
51718;SDS011;37795;53.236;5.704;2023-04-21T11:55:41;16.92;;;11.02;;
51718;SDS011;37795;53.236;5.704;2023-04-21T11:58:08;13.73;;;10.32;;
51718;SDS011;37795;53.236;5.704;2023-04-21T12:00:34;13.02;;;11.70;;
51718;SDS011;37795;53.236;5.704;2023-04-21T12:03:00;13.65;;;12.25;;
51718;SDS011;37795;53.236;5.704;2023-04-21T12:05:33;19.30;;;10.80;;
51718;SDS011;37795;53.236;5.704;2023-04-21T12:08:00;12.10;;;9.90;;
51718;SDS011;37795;53.236;5.704;2023-04-21T12:10:26;12.95;;;11.30;;
51718;SDS011;37795;53.236;5.704;2023-04-21T12:12:54;16.58;;;10.43;;
51718;SDS011;37795;53.236;5.704;2023-04-21T12:15:21;16.25;;;11.52;;
51718;SDS011;37795;53.236;5.704;2023-04-21T12:17:53;18.63;;;10.13;;
51718;SDS011;37795;53.236;5.704;2023-04-21T12:20:20;12.13;;;9.98;;
51718;SDS011;37795;53.236;5.704;2023-04-21T12:22:47;15.52;;;9.73;;
51718;SDS011;37795;53.236;5.704;2023-04-21T12:25:13;16.23;;;10.50;;
51718;SDS011;37795;53.236;5.704;2023-04-21T12:27:56;11.30;;;9.45;;
51718;SDS011;37795;53.236;5.704;2023-04-21T12:30:22;11.80;;;9.55;;
51718;SDS011;37795;53.236;5.704;2023-04-21T12:32:48;10.25;;;9.23;;
51718;SDS011;37795;53.236;5.704;2023-04-21T12:35:16;17.77;;;8.95;;
51718;SDS011;37795;53.236;5.704;2023-04-21T12:37:41;10.15;;;8.73;;
51718;SDS011;37795;53.236;5.704;2023-04-21T12:40:08;8.43;;;7.57;;
51718;SDS011;37795;53.236;5.704;2023-04-21T12:42:34;14.18;;;9.55;;
51718;SDS011;37795;53.236;5.704;2023-04-21T12:44:59;14.40;;;9.02;;
51718;SDS011;37795;53.236;5.704;2023-04-21T12:47:25;11.30;;;8.32;;
51718;SDS011;37795;53.236;5.704;2023-04-21T12:49:51;12.52;;;7.97;;
51718;SDS011;37795;53.236;5.704;2023-04-21T12:52:17;13.33;;;8.97;;
51718;SDS011;37795;53.236;5.704;2023-04-21T12:54:42;13.75;;;8.02;;
51718;SDS011;37795;53.236;5.704;2023-04-21T12:57:08;12.13;;;7.75;;
51718;SDS011;37795;53.236;5.704;2023-04-21T12:59:34;8.98;;;6.90;;
51718;SDS011;37795;53.236;5.704;2023-04-21T13:02:00;19.48;;;7.97;;
51718;SDS011;37795;53.236;5.704;2023-04-21T13:04:26;10.47;;;7.00;;
51718;SDS011;37795;53.236;5.704;2023-04-21T13:06:51;8.52;;;6.65;;
51718;SDS011;37795;53.236;5.704;2023-04-21T13:09:17;12.23;;;6.47;;
51718;SDS011;37795;53.236;5.704;2023-04-21T13:11:43;11.65;;;7.30;;
51718;SDS011;37795;53.236;5.704;2023-04-21T13:14:08;12.23;;;6.70;;
51718;SDS011;37795;53.236;5.704;2023-04-21T13:16:34;7.43;;;6.63;;
51718;SDS011;37795;53.236;5.704;2023-04-21T13:19:00;6.63;;;5.93;;
51718;SDS011;37795;53.236;5.704;2023-04-21T13:21:26;9.93;;;5.73;;
51718;SDS011;37795;53.236;5.704;2023-04-21T13:23:52;9.52;;;5.82;;
51718;SDS011;37795;53.236;5.704;2023-04-21T13:26:18;5.05;;;4.55;;
51718;SDS011;37795;53.236;5.704;2023-04-21T13:28:43;7.00;;;5.07;;
51718;SDS011;37795;53.236;5.704;2023-04-21T13:31:09;9.95;;;6.75;;
51718;SDS011;37795;53.236;5.704;2023-04-21T13:33:35;16.60;;;6.35;;
51718;SDS011;37795;53.236;5.704;2023-04-21T13:36:01;13.52;;;5.90;;
51718;SDS011;37795;53.236;5.704;2023-04-21T13:38:27;10.55;;;5.55;;
51718;SDS011;37795;53.236;5.704;2023-04-21T13:40:53;8.38;;;5.50;;
51718;SDS011;37795;53.236;5.704;2023-04-21T13:43:19;9.82;;;5.50;;
51718;SDS011;37795;53.236;5.704;2023-04-21T13:45:45;14.20;;;5.93;;
51718;SDS011;37795;53.236;5.704;2023-04-21T13:48:12;10.20;;;5.25;;
51718;SDS011;37795;53.236;5.704;2023-04-21T13:50:37;10.20;;;5.78;;
51718;SDS011;37795;53.236;5.704;2023-04-21T13:53:03;12.30;;;5.32;;
51718;SDS011;37795;53.236;5.704;2023-04-21T13:55:30;9.90;;;6.72;;
51718;SDS011;37795;53.236;5.704;2023-04-21T13:57:57;16.15;;;6.10;;
51718;SDS011;37795;53.236;5.704;2023-04-21T14:00:24;10.00;;;6.50;;
51718;SDS011;37795;53.236;5.704;2023-04-21T14:02:50;13.20;;;6.57;;
51718;SDS011;37795;53.236;5.704;2023-04-21T14:05:16;14.33;;;6.70;;
51718;SDS011;37795;53.236;5.704;2023-04-21T14:07:42;10.87;;;5.77;;
51718;SDS011;37795;53.236;5.704;2023-04-21T14:10:07;6.45;;;5.43;;
51718;SDS011;37795;53.236;5.704;2023-04-21T14:12:33;12.38;;;5.78;;
51718;SDS011;37795;53.236;5.704;2023-04-21T14:14:59;10.70;;;5.17;;
51718;SDS011;37795;53.236;5.704;2023-04-21T14:17:25;6.93;;;5.07;;
51718;SDS011;37795;53.236;5.704;2023-04-21T14:19:51;15.50;;;10.38;;
51718;SDS011;37795;53.236;5.704;2023-04-21T14:22:16;16.53;;;10.43;;
51718;SDS011;37795;53.236;5.704;2023-04-21T14:24:43;12.35;;;10.93;;
51718;SDS011;37795;53.236;5.704;2023-04-21T14:27:09;18.33;;;12.13;;
51718;SDS011;37795;53.236;5.704;2023-04-21T14:29:35;19.87;;;13.07;;
51718;SDS011;37795;53.236;5.704;2023-04-21T14:32:00;21.53;;;15.67;;
51718;SDS011;37795;53.236;5.704;2023-04-21T14:34:26;23.17;;;15.13;;
51718;SDS011;37795;53.236;5.704;2023-04-21T14:36:52;20.60;;;14.97;;
51718;SDS011;37795;53.236;5.704;2023-04-21T14:39:18;16.27;;;14.65;;
51718;SDS011;37795;53.236;5.704;2023-04-21T14:41:44;16.05;;;12.77;;
51718;SDS011;37795;53.236;5.704;2023-04-21T14:44:10;19.73;;;12.93;;
51718;SDS011;37795;53.236;5.704;2023-04-21T14:46:35;14.65;;;12.07;;
51718;SDS011;37795;53.236;5.704;2023-04-21T14:49:02;21.20;;;13.68;;
51718;SDS011;37795;53.236;5.704;2023-04-21T14:53:54;18.50;;;14.30;;
51718;SDS011;37795;53.236;5.704;2023-04-21T14:56:19;15.43;;;10.98;;
51718;SDS011;37795;53.236;5.704;2023-04-21T14:58:45;14.82;;;12.43;;
51718;SDS011;37795;53.236;5.704;2023-04-21T15:01:11;15.00;;;11.57;;
51718;SDS011;37795;53.236;5.704;2023-04-21T15:03:37;13.30;;;11.65;;
51718;SDS011;37795;53.236;5.704;2023-04-21T15:06:02;13.00;;;11.33;;
51718;SDS011;37795;53.236;5.704;2023-04-21T15:08:28;12.57;;;11.27;;